sensor_id;sensor_type;location;lat;lon;timestamp;P1;durP1;ratioP1;P2;durP2;ratioP2
69892;SDS011;61212;42.688;22.176;2022-10-16T00:00:36;74.97;;;30.27;;
69892;SDS011;61212;42.688;22.176;2022-10-16T00:03:03;43.33;;;18.63;;
69892;SDS011;61212;42.688;22.176;2022-10-16T00:05:29;37.20;;;18.63;;
69892;SDS011;61212;42.688;22.176;2022-10-16T00:07:55;33.33;;;15.50;;
69892;SDS011;61212;42.688;22.176;2022-10-16T00:10:21;31.60;;;16.50;;
69892;SDS011;61212;42.688;22.176;2022-10-16T00:12:47;33.47;;;17.58;;
69892;SDS011;61212;42.688;22.176;2022-10-16T00:18:17;22.20;;;12.25;;
69892;SDS011;61212;42.688;22.176;2022-10-16T00:20:43;24.67;;;11.95;;
69892;SDS011;61212;42.688;22.176;2022-10-16T00:23:09;24.20;;;13.75;;
69892;SDS011;61212;42.688;22.176;2022-10-16T00:25:35;40.45;;;19.25;;
69892;SDS011;61212;42.688;22.176;2022-10-16T00:28:01;35.63;;;16.73;;
69892;SDS011;61212;42.688;22.176;2022-10-16T00:30:46;29.77;;;15.38;;
69892;SDS011;61212;42.688;22.176;2022-10-16T00:33:12;33.50;;;14.23;;
69892;SDS011;61212;42.688;22.176;2022-10-16T00:35:38;31.27;;;14.90;;
69892;SDS011;61212;42.688;22.176;2022-10-16T00:38:04;24.33;;;11.55;;
69892;SDS011;61212;42.688;22.176;2022-10-16T00:40:30;21.85;;;12.35;;
69892;SDS011;61212;42.688;22.176;2022-10-16T00:42:56;22.33;;;11.40;;
69892;SDS011;61212;42.688;22.176;2022-10-16T00:45:23;21.48;;;11.02;;
69892;SDS011;61212;42.688;22.176;2022-10-16T00:47:49;20.17;;;9.93;;
69892;SDS011;61212;42.688;22.176;2022-10-16T00:50:18;17.73;;;9.40;;
69892;SDS011;61212;42.688;22.176;2022-10-16T00:52:48;16.13;;;9.60;;
69892;SDS011;61212;42.688;22.176;2022-10-16T00:55:15;17.98;;;8.88;;
69892;SDS011;61212;42.688;22.176;2022-10-16T00:57:42;19.23;;;8.73;;
69892;SDS011;61212;42.688;22.176;2022-10-16T01:00:09;21.80;;;9.48;;
69892;SDS011;61212;42.688;22.176;2022-10-16T01:02:36;24.17;;;10.10;;
69892;SDS011;61212;42.688;22.176;2022-10-16T01:05:02;22.45;;;9.43;;
69892;SDS011;61212;42.688;22.176;2022-10-16T01:12:59;19.05;;;9.52;;
69892;SDS011;61212;42.688;22.176;2022-10-16T01:20:32;21.00;;;11.10;;
69892;SDS011;61212;42.688;22.176;2022-10-16T01:23:02;19.17;;;10.32;;
69892;SDS011;61212;42.688;22.176;2022-10-16T01:27:56;18.92;;;9.70;;
69892;SDS011;61212;42.688;22.176;2022-10-16T01:33:38;27.80;;;12.75;;
69892;SDS011;61212;42.688;22.176;2022-10-16T01:36:07;19.45;;;9.77;;
69892;SDS011;61212;42.688;22.176;2022-10-16T01:38:39;20.77;;;9.27;;
69892;SDS011;61212;42.688;22.176;2022-10-16T01:41:08;17.38;;;9.10;;
69892;SDS011;61212;42.688;22.176;2022-10-16T01:43:40;21.45;;;10.10;;
69892;SDS011;61212;42.688;22.176;2022-10-16T01:46:07;17.17;;;7.63;;
69892;SDS011;61212;42.688;22.176;2022-10-16T01:48:34;16.00;;;8.52;;
69892;SDS011;61212;42.688;22.176;2022-10-16T01:51:04;17.90;;;8.10;;
69892;SDS011;61212;42.688;22.176;2022-10-16T01:53:31;18.27;;;8.30;;
69892;SDS011;61212;42.688;22.176;2022-10-16T01:55:58;17.52;;;7.68;;
69892;SDS011;61212;42.688;22.176;2022-10-16T01:58:25;21.02;;;8.80;;
69892;SDS011;61212;42.688;22.176;2022-10-16T02:00:51;16.98;;;9.43;;
69892;SDS011;61212;42.688;22.176;2022-10-16T02:03:18;19.52;;;10.05;;
69892;SDS011;61212;42.688;22.176;2022-10-16T02:05:46;18.77;;;9.77;;
69892;SDS011;61212;42.688;22.176;2022-10-16T02:08:12;22.05;;;9.30;;
69892;SDS011;61212;42.688;22.176;2022-10-16T02:10:39;22.50;;;9.60;;
69892;SDS011;61212;42.688;22.176;2022-10-16T02:15:50;14.40;;;7.43;;
69892;SDS011;61212;42.688;22.176;2022-10-16T02:18:16;22.38;;;8.40;;
69892;SDS011;61212;42.688;22.176;2022-10-16T02:23:29;15.05;;;8.05;;
69892;SDS011;61212;42.688;22.176;2022-10-16T02:25:58;18.67;;;7.32;;
69892;SDS011;61212;42.688;22.176;2022-10-16T02:28:34;19.48;;;8.07;;
69892;SDS011;61212;42.688;22.176;2022-10-16T02:31:03;39.75;;;8.48;;
69892;SDS011;61212;42.688;22.176;2022-10-16T02:33:30;20.92;;;8.68;;
69892;SDS011;61212;42.688;22.176;2022-10-16T02:35:58;15.05;;;7.85;;
69892;SDS011;61212;42.688;22.176;2022-10-16T02:38:24;15.65;;;7.93;;
69892;SDS011;61212;42.688;22.176;2022-10-16T02:40:51;21.17;;;8.07;;
69892;SDS011;61212;42.688;22.176;2022-10-16T02:43:17;17.70;;;7.82;;
69892;SDS011;61212;42.688;22.176;2022-10-16T02:48:47;18.73;;;7.17;;
69892;SDS011;61212;42.688;22.176;2022-10-16T02:51:13;18.23;;;8.52;;
69892;SDS011;61212;42.688;22.176;2022-10-16T02:53:39;16.30;;;8.55;;
69892;SDS011;61212;42.688;22.176;2022-10-16T02:56:05;15.07;;;8.10;;
69892;SDS011;61212;42.688;22.176;2022-10-16T02:58:32;21.05;;;7.90;;
69892;SDS011;61212;42.688;22.176;2022-10-16T03:00:58;13.75;;;6.72;;
69892;SDS011;61212;42.688;22.176;2022-10-16T03:03:24;15.13;;;7.57;;
69892;SDS011;61212;42.688;22.176;2022-10-16T03:05:50;12.85;;;6.82;;
69892;SDS011;61212;42.688;22.176;2022-10-16T03:08:16;15.77;;;7.53;;
69892;SDS011;61212;42.688;22.176;2022-10-16T03:10:43;15.40;;;6.45;;
69892;SDS011;61212;42.688;22.176;2022-10-16T03:13:09;14.25;;;6.78;;
69892;SDS011;61212;42.688;22.176;2022-10-16T03:18:39;12.93;;;6.37;;
69892;SDS011;61212;42.688;22.176;2022-10-16T03:21:05;12.60;;;6.30;;
69892;SDS011;61212;42.688;22.176;2022-10-16T03:23:31;14.25;;;5.68;;
69892;SDS011;61212;42.688;22.176;2022-10-16T03:25:57;17.40;;;7.28;;
69892;SDS011;61212;42.688;22.176;2022-10-16T03:28:24;17.90;;;8.43;;
69892;SDS011;61212;42.688;22.176;2022-10-16T03:33:53;13.00;;;6.97;;
69892;SDS011;61212;42.688;22.176;2022-10-16T03:36:19;10.68;;;6.40;;
69892;SDS011;61212;42.688;22.176;2022-10-16T03:38:46;11.18;;;6.80;;
69892;SDS011;61212;42.688;22.176;2022-10-16T03:41:12;16.58;;;6.80;;
69892;SDS011;61212;42.688;22.176;2022-10-16T03:43:38;12.20;;;6.82;;
69892;SDS011;61212;42.688;22.176;2022-10-16T03:46:04;17.13;;;6.65;;
69892;SDS011;61212;42.688;22.176;2022-10-16T03:48:30;13.13;;;6.47;;
69892;SDS011;61212;42.688;22.176;2022-10-16T03:50:57;10.82;;;5.60;;
69892;SDS011;61212;42.688;22.176;2022-10-16T03:53:23;11.43;;;5.70;;
69892;SDS011;61212;42.688;22.176;2022-10-16T03:55:49;18.00;;;7.80;;
69892;SDS011;61212;42.688;22.176;2022-10-16T03:58:16;88.85;;;38.40;;
69892;SDS011;61212;42.688;22.176;2022-10-16T04:01:00;24.45;;;10.45;;
69892;SDS011;61212;42.688;22.176;2022-10-16T04:03:26;20.35;;;10.32;;
69892;SDS011;61212;42.688;22.176;2022-10-16T04:05:53;20.23;;;9.70;;
69892;SDS011;61212;42.688;22.176;2022-10-16T04:08:19;19.52;;;9.15;;
69892;SDS011;61212;42.688;22.176;2022-10-16T04:10:45;23.48;;;8.63;;
69892;SDS011;61212;42.688;22.176;2022-10-16T04:13:11;24.58;;;9.07;;
69892;SDS011;61212;42.688;22.176;2022-10-16T04:15:38;16.48;;;7.75;;
69892;SDS011;61212;42.688;22.176;2022-10-16T04:18:04;20.52;;;7.53;;
69892;SDS011;61212;42.688;22.176;2022-10-16T04:20:31;17.10;;;8.40;;
69892;SDS011;61212;42.688;22.176;2022-10-16T04:22:57;20.58;;;7.65;;
69892;SDS011;61212;42.688;22.176;2022-10-16T04:25:23;18.25;;;7.15;;
69892;SDS011;61212;42.688;22.176;2022-10-16T04:27:49;15.48;;;7.72;;
69892;SDS011;61212;42.688;22.176;2022-10-16T04:30:15;21.25;;;8.25;;
69892;SDS011;61212;42.688;22.176;2022-10-16T04:32:41;16.98;;;8.10;;
69892;SDS011;61212;42.688;22.176;2022-10-16T04:35:07;20.58;;;9.35;;
69892;SDS011;61212;42.688;22.176;2022-10-16T04:37:34;14.80;;;7.60;;
69892;SDS011;61212;42.688;22.176;2022-10-16T04:40:00;16.50;;;7.88;;
69892;SDS011;61212;42.688;22.176;2022-10-16T04:42:26;19.58;;;9.05;;
69892;SDS011;61212;42.688;22.176;2022-10-16T04:44:52;15.55;;;8.35;;
69892;SDS011;61212;42.688;22.176;2022-10-16T04:47:18;18.88;;;7.70;;
69892;SDS011;61212;42.688;22.176;2022-10-16T04:49:44;20.45;;;8.23;;
69892;SDS011;61212;42.688;22.176;2022-10-16T04:52:10;14.82;;;8.05;;
69892;SDS011;61212;42.688;22.176;2022-10-16T04:54:36;21.63;;;9.80;;
69892;SDS011;61212;42.688;22.176;2022-10-16T04:57:02;20.30;;;11.23;;
69892;SDS011;61212;42.688;22.176;2022-10-16T04:59:30;16.70;;;8.93;;
69892;SDS011;61212;42.688;22.176;2022-10-16T05:01:56;18.02;;;9.90;;
69892;SDS011;61212;42.688;22.176;2022-10-16T05:04:22;19.80;;;8.48;;
69892;SDS011;61212;42.688;22.176;2022-10-16T05:06:48;21.48;;;10.10;;
69892;SDS011;61212;42.688;22.176;2022-10-16T05:09:14;31.50;;;15.23;;
69892;SDS011;61212;42.688;22.176;2022-10-16T05:11:40;27.13;;;11.90;;
69892;SDS011;61212;42.688;22.176;2022-10-16T05:14:06;25.27;;;12.43;;
69892;SDS011;61212;42.688;22.176;2022-10-16T05:16:33;34.95;;;15.43;;
69892;SDS011;61212;42.688;22.176;2022-10-16T05:18:59;44.50;;;18.63;;
69892;SDS011;61212;42.688;22.176;2022-10-16T05:21:25;41.20;;;18.75;;
69892;SDS011;61212;42.688;22.176;2022-10-16T05:23:52;29.00;;;13.32;;
69892;SDS011;61212;42.688;22.176;2022-10-16T05:26:19;23.42;;;10.50;;
69892;SDS011;61212;42.688;22.176;2022-10-16T05:28:45;27.05;;;11.02;;
69892;SDS011;61212;42.688;22.176;2022-10-16T05:34:15;25.55;;;12.52;;
69892;SDS011;61212;42.688;22.176;2022-10-16T05:36:41;39.30;;;16.83;;
69892;SDS011;61212;42.688;22.176;2022-10-16T05:39:07;44.22;;;18.15;;
69892;SDS011;61212;42.688;22.176;2022-10-16T05:41:33;50.20;;;18.27;;
69892;SDS011;61212;42.688;22.176;2022-10-16T05:43:59;33.75;;;16.35;;
69892;SDS011;61212;42.688;22.176;2022-10-16T05:46:25;24.65;;;14.05;;
69892;SDS011;61212;42.688;22.176;2022-10-16T05:48:52;28.63;;;13.93;;
69892;SDS011;61212;42.688;22.176;2022-10-16T05:51:18;23.83;;;13.38;;
69892;SDS011;61212;42.688;22.176;2022-10-16T05:53:44;23.42;;;11.88;;
69892;SDS011;61212;42.688;22.176;2022-10-16T05:56:10;37.92;;;17.65;;
69892;SDS011;61212;42.688;22.176;2022-10-16T05:58:38;84.25;;;36.20;;
69892;SDS011;61212;42.688;22.176;2022-10-16T06:01:06;63.33;;;25.23;;
69892;SDS011;61212;42.688;22.176;2022-10-16T06:03:33;50.25;;;21.77;;
69892;SDS011;61212;42.688;22.176;2022-10-16T06:05:59;62.28;;;25.45;;
69892;SDS011;61212;42.688;22.176;2022-10-16T06:08:25;55.60;;;26.48;;
69892;SDS011;61212;42.688;22.176;2022-10-16T06:11:01;85.55;;;39.88;;
69892;SDS011;61212;42.688;22.176;2022-10-16T06:13:28;83.15;;;39.47;;
69892;SDS011;61212;42.688;22.176;2022-10-16T06:16:12;133.18;;;60.65;;
69892;SDS011;61212;42.688;22.176;2022-10-16T06:18:38;67.88;;;34.17;;
69892;SDS011;61212;42.688;22.176;2022-10-16T06:21:08;41.00;;;21.65;;
69892;SDS011;61212;42.688;22.176;2022-10-16T06:23:35;59.35;;;29.10;;
69892;SDS011;61212;42.688;22.176;2022-10-16T06:26:07;44.65;;;24.98;;
69892;SDS011;61212;42.688;22.176;2022-10-16T06:28:33;38.80;;;23.58;;
69892;SDS011;61212;42.688;22.176;2022-10-16T06:31:00;60.92;;;29.20;;
69892;SDS011;61212;42.688;22.176;2022-10-16T06:33:26;38.85;;;17.38;;
69892;SDS011;61212;42.688;22.176;2022-10-16T06:35:52;43.80;;;17.55;;
69892;SDS011;61212;42.688;22.176;2022-10-16T06:38:18;122.18;;;49.88;;
69892;SDS011;61212;42.688;22.176;2022-10-16T06:40:44;42.17;;;22.08;;
69892;SDS011;61212;42.688;22.176;2022-10-16T06:43:10;58.20;;;26.83;;
69892;SDS011;61212;42.688;22.176;2022-10-16T06:45:37;30.48;;;15.52;;
69892;SDS011;61212;42.688;22.176;2022-10-16T06:48:03;32.08;;;17.33;;
69892;SDS011;61212;42.688;22.176;2022-10-16T06:50:29;30.15;;;18.58;;
69892;SDS011;61212;42.688;22.176;2022-10-16T06:52:55;40.72;;;22.63;;
69892;SDS011;61212;42.688;22.176;2022-10-16T06:55:21;39.28;;;23.80;;
69892;SDS011;61212;42.688;22.176;2022-10-16T06:57:47;40.53;;;25.40;;
69892;SDS011;61212;42.688;22.176;2022-10-16T07:00:13;57.20;;;32.25;;
69892;SDS011;61212;42.688;22.176;2022-10-16T07:02:40;85.80;;;45.28;;
69892;SDS011;61212;42.688;22.176;2022-10-16T07:05:06;43.08;;;25.08;;
69892;SDS011;61212;42.688;22.176;2022-10-16T07:07:33;41.05;;;28.25;;
69892;SDS011;61212;42.688;22.176;2022-10-16T07:10:02;54.53;;;32.65;;
69892;SDS011;61212;42.688;22.176;2022-10-16T07:12:30;42.40;;;25.38;;
69892;SDS011;61212;42.688;22.176;2022-10-16T07:14:56;32.35;;;21.13;;
69892;SDS011;61212;42.688;22.176;2022-10-16T07:17:22;38.33;;;24.95;;
69892;SDS011;61212;42.688;22.176;2022-10-16T07:19:48;49.65;;;30.35;;
69892;SDS011;61212;42.688;22.176;2022-10-16T07:22:17;41.13;;;25.77;;
69892;SDS011;61212;42.688;22.176;2022-10-16T07:24:44;50.00;;;29.75;;
69892;SDS011;61212;42.688;22.176;2022-10-16T07:27:10;51.38;;;35.90;;
69892;SDS011;61212;42.688;22.176;2022-10-16T07:29:36;51.22;;;32.97;;
69892;SDS011;61212;42.688;22.176;2022-10-16T07:32:02;57.58;;;37.85;;
69892;SDS011;61212;42.688;22.176;2022-10-16T07:34:28;52.40;;;31.23;;
69892;SDS011;61212;42.688;22.176;2022-10-16T07:36:54;37.78;;;26.25;;
69892;SDS011;61212;42.688;22.176;2022-10-16T07:39:21;22.92;;;12.88;;
69892;SDS011;61212;42.688;22.176;2022-10-16T07:41:47;24.60;;;16.48;;
69892;SDS011;61212;42.688;22.176;2022-10-16T07:44:13;30.30;;;16.67;;
69892;SDS011;61212;42.688;22.176;2022-10-16T07:46:39;19.38;;;13.50;;
69892;SDS011;61212;42.688;22.176;2022-10-16T07:49:05;31.83;;;19.45;;
69892;SDS011;61212;42.688;22.176;2022-10-16T07:51:31;42.22;;;26.30;;
69892;SDS011;61212;42.688;22.176;2022-10-16T07:53:58;20.10;;;11.65;;
69892;SDS011;61212;42.688;22.176;2022-10-16T07:56:24;54.28;;;28.65;;
69892;SDS011;61212;42.688;22.176;2022-10-16T07:58:50;27.45;;;17.02;;
69892;SDS011;61212;42.688;22.176;2022-10-16T08:01:17;25.55;;;16.58;;
69892;SDS011;61212;42.688;22.176;2022-10-16T08:03:47;20.05;;;9.88;;
69892;SDS011;61212;42.688;22.176;2022-10-16T08:06:14;22.60;;;9.45;;
69892;SDS011;61212;42.688;22.176;2022-10-16T08:08:40;19.25;;;9.27;;
69892;SDS011;61212;42.688;22.176;2022-10-16T08:11:06;21.00;;;12.40;;
69892;SDS011;61212;42.688;22.176;2022-10-16T08:13:33;11.48;;;8.35;;
69892;SDS011;61212;42.688;22.176;2022-10-16T08:15:59;18.55;;;7.63;;
69892;SDS011;61212;42.688;22.176;2022-10-16T08:18:25;10.95;;;6.90;;
69892;SDS011;61212;42.688;22.176;2022-10-16T08:20:55;29.75;;;16.67;;
69892;SDS011;61212;42.688;22.176;2022-10-16T08:23:22;35.08;;;21.42;;
69892;SDS011;61212;42.688;22.176;2022-10-16T08:25:50;10.35;;;6.78;;
69892;SDS011;61212;42.688;22.176;2022-10-16T08:28:19;12.90;;;6.35;;
69892;SDS011;61212;42.688;22.176;2022-10-16T08:30:45;12.68;;;6.70;;
69892;SDS011;61212;42.688;22.176;2022-10-16T08:33:11;9.73;;;6.60;;
69892;SDS011;61212;42.688;22.176;2022-10-16T08:35:37;19.67;;;9.30;;
69892;SDS011;61212;42.688;22.176;2022-10-16T08:38:03;18.05;;;6.53;;
69892;SDS011;61212;42.688;22.176;2022-10-16T08:40:31;9.40;;;5.10;;
69892;SDS011;61212;42.688;22.176;2022-10-16T08:43:04;9.27;;;5.28;;
69892;SDS011;61212;42.688;22.176;2022-10-16T08:51:01;10.48;;;5.35;;
69892;SDS011;61212;42.688;22.176;2022-10-16T08:53:31;16.40;;;7.35;;
69892;SDS011;61212;42.688;22.176;2022-10-16T08:55:59;14.48;;;6.88;;
69892;SDS011;61212;42.688;22.176;2022-10-16T08:58:29;10.10;;;6.30;;
69892;SDS011;61212;42.688;22.176;2022-10-16T09:00:56;9.32;;;5.35;;
69892;SDS011;61212;42.688;22.176;2022-10-16T09:06:17;7.75;;;4.60;;
69892;SDS011;61212;42.688;22.176;2022-10-16T09:09:05;11.25;;;5.38;;
69892;SDS011;61212;42.688;22.176;2022-10-16T09:16:46;11.07;;;5.80;;
69892;SDS011;61212;42.688;22.176;2022-10-16T09:21:42;8.07;;;4.85;;
69892;SDS011;61212;42.688;22.176;2022-10-16T09:24:13;8.20;;;3.95;;
69892;SDS011;61212;42.688;22.176;2022-10-16T09:26:40;11.32;;;6.75;;
69892;SDS011;61212;42.688;22.176;2022-10-16T09:29:06;9.45;;;3.88;;
69892;SDS011;61212;42.688;22.176;2022-10-16T09:31:35;7.85;;;5.03;;
69892;SDS011;61212;42.688;22.176;2022-10-16T09:34:04;9.98;;;5.30;;
69892;SDS011;61212;42.688;22.176;2022-10-16T09:36:34;12.32;;;6.03;;
69892;SDS011;61212;42.688;22.176;2022-10-16T09:39:05;12.95;;;8.25;;
69892;SDS011;61212;42.688;22.176;2022-10-16T09:41:33;14.05;;;7.70;;
69892;SDS011;61212;42.688;22.176;2022-10-16T09:44:00;11.70;;;5.20;;
69892;SDS011;61212;42.688;22.176;2022-10-16T09:46:31;8.02;;;4.57;;
69892;SDS011;61212;42.688;22.176;2022-10-16T09:48:58;9.95;;;4.38;;
69892;SDS011;61212;42.688;22.176;2022-10-16T09:51:26;8.55;;;4.47;;
69892;SDS011;61212;42.688;22.176;2022-10-16T09:54:11;13.25;;;5.82;;
69892;SDS011;61212;42.688;22.176;2022-10-16T09:56:39;7.60;;;4.93;;
69892;SDS011;61212;42.688;22.176;2022-10-16T09:59:10;8.32;;;4.65;;
69892;SDS011;61212;42.688;22.176;2022-10-16T10:02:01;16.83;;;9.55;;
69892;SDS011;61212;42.688;22.176;2022-10-16T10:04:25;10.13;;;6.90;;
69892;SDS011;61212;42.688;22.176;2022-10-16T10:06:54;9.82;;;5.40;;
69892;SDS011;61212;42.688;22.176;2022-10-16T10:11:57;9.85;;;4.70;;
69892;SDS011;61212;42.688;22.176;2022-10-16T10:17:06;10.88;;;5.82;;
69892;SDS011;61212;42.688;22.176;2022-10-16T10:19:43;8.52;;;5.57;;
69892;SDS011;61212;42.688;22.176;2022-10-16T10:22:17;7.53;;;5.05;;
69892;SDS011;61212;42.688;22.176;2022-10-16T10:24:46;18.92;;;8.43;;
69892;SDS011;61212;42.688;22.176;2022-10-16T10:27:20;10.93;;;6.65;;
69892;SDS011;61212;42.688;22.176;2022-10-16T10:30:01;17.08;;;7.95;;
69892;SDS011;61212;42.688;22.176;2022-10-16T10:33:05;13.02;;;6.53;;
69892;SDS011;61212;42.688;22.176;2022-10-16T10:35:22;15.30;;;8.02;;
69892;SDS011;61212;42.688;22.176;2022-10-16T10:37:58;14.05;;;6.53;;
69892;SDS011;61212;42.688;22.176;2022-10-16T10:45:42;41.92;;;21.52;;
69892;SDS011;61212;42.688;22.176;2022-10-16T10:51:10;12.00;;;5.30;;
69892;SDS011;61212;42.688;22.176;2022-10-16T10:53:41;13.35;;;5.88;;
69892;SDS011;61212;42.688;22.176;2022-10-16T11:01:15;28.25;;;14.52;;
69892;SDS011;61212;42.688;22.176;2022-10-16T11:06:19;43.92;;;24.13;;
69892;SDS011;61212;42.688;22.176;2022-10-16T11:08:57;21.90;;;8.98;;
69892;SDS011;61212;42.688;22.176;2022-10-16T11:16:21;39.55;;;21.58;;
69892;SDS011;61212;42.688;22.176;2022-10-16T11:21:35;32.90;;;15.85;;
69892;SDS011;61212;42.688;22.176;2022-10-16T11:24:16;27.77;;;14.73;;
69892;SDS011;61212;42.688;22.176;2022-10-16T11:26:45;15.70;;;8.30;;
69892;SDS011;61212;42.688;22.176;2022-10-16T11:29:15;19.13;;;11.98;;
69892;SDS011;61212;42.688;22.176;2022-10-16T11:31:47;19.23;;;10.68;;
69892;SDS011;61212;42.688;22.176;2022-10-16T11:36:44;21.95;;;12.38;;
69892;SDS011;61212;42.688;22.176;2022-10-16T11:41:49;13.98;;;7.57;;
69892;SDS011;61212;42.688;22.176;2022-10-16T11:47:01;7.75;;;3.30;;
69892;SDS011;61212;42.688;22.176;2022-10-16T11:49:32;11.70;;;5.72;;
69892;SDS011;61212;42.688;22.176;2022-10-16T11:54:30;8.32;;;3.53;;
69892;SDS011;61212;42.688;22.176;2022-10-16T11:56:59;4.60;;;2.20;;
69892;SDS011;61212;42.688;22.176;2022-10-16T11:59:29;5.40;;;2.85;;
69892;SDS011;61212;42.688;22.176;2022-10-16T12:04:34;3.35;;;1.95;;
69892;SDS011;61212;42.688;22.176;2022-10-16T12:07:11;5.00;;;2.05;;
69892;SDS011;61212;42.688;22.176;2022-10-16T12:09:39;4.07;;;2.20;;
69892;SDS011;61212;42.688;22.176;2022-10-16T12:12:25;6.35;;;3.10;;
69892;SDS011;61212;42.688;22.176;2022-10-16T12:15:02;4.30;;;2.47;;
69892;SDS011;61212;42.688;22.176;2022-10-16T12:17:36;5.55;;;2.55;;
69892;SDS011;61212;42.688;22.176;2022-10-16T12:22:41;8.45;;;3.65;;
69892;SDS011;61212;42.688;22.176;2022-10-16T12:25:19;19.23;;;9.23;;
69892;SDS011;61212;42.688;22.176;2022-10-16T12:27:52;42.00;;;17.83;;
69892;SDS011;61212;42.688;22.176;2022-10-16T12:30:24;13.38;;;6.57;;
69892;SDS011;61212;42.688;22.176;2022-10-16T12:32:53;34.92;;;13.07;;
69892;SDS011;61212;42.688;22.176;2022-10-16T12:35:21;8.88;;;4.75;;
69892;SDS011;61212;42.688;22.176;2022-10-16T12:37:48;18.25;;;13.32;;
69892;SDS011;61212;42.688;22.176;2022-10-16T12:40:22;19.83;;;11.93;;
69892;SDS011;61212;42.688;22.176;2022-10-16T12:42:49;10.30;;;2.67;;
69892;SDS011;61212;42.688;22.176;2022-10-16T12:45:27;16.20;;;8.55;;
69892;SDS011;61212;42.688;22.176;2022-10-16T12:47:54;5.72;;;3.58;;
69892;SDS011;61212;42.688;22.176;2022-10-16T12:50:24;6.22;;;3.33;;
69892;SDS011;61212;42.688;22.176;2022-10-16T12:52:51;10.73;;;3.35;;
69892;SDS011;61212;42.688;22.176;2022-10-16T12:55:18;9.77;;;3.20;;
69892;SDS011;61212;42.688;22.176;2022-10-16T13:00:13;6.57;;;2.75;;
69892;SDS011;61212;42.688;22.176;2022-10-16T13:10:33;10.77;;;4.68;;
69892;SDS011;61212;42.688;22.176;2022-10-16T13:13:18;8.15;;;3.47;;
69892;SDS011;61212;42.688;22.176;2022-10-16T13:15:52;9.88;;;3.80;;
69892;SDS011;61212;42.688;22.176;2022-10-16T13:18:38;8.02;;;3.42;;
69892;SDS011;61212;42.688;22.176;2022-10-16T13:24:01;6.20;;;3.05;;
69892;SDS011;61212;42.688;22.176;2022-10-16T13:28:52;7.22;;;3.92;;
69892;SDS011;61212;42.688;22.176;2022-10-16T13:31:19;14.90;;;4.18;;
69892;SDS011;61212;42.688;22.176;2022-10-16T13:33:47;8.52;;;3.80;;
69892;SDS011;61212;42.688;22.176;2022-10-16T13:36:34;10.30;;;4.57;;
69892;SDS011;61212;42.688;22.176;2022-10-16T13:39:10;12.15;;;5.38;;
69892;SDS011;61212;42.688;22.176;2022-10-16T13:41:36;10.70;;;4.05;;
69892;SDS011;61212;42.688;22.176;2022-10-16T13:44:02;7.32;;;3.85;;
69892;SDS011;61212;42.688;22.176;2022-10-16T13:46:32;6.72;;;3.88;;
69892;SDS011;61212;42.688;22.176;2022-10-16T13:49:03;9.20;;;4.25;;
69892;SDS011;61212;42.688;22.176;2022-10-16T13:51:30;12.70;;;5.13;;
69892;SDS011;61212;42.688;22.176;2022-10-16T13:53:56;9.13;;;5.07;;
69892;SDS011;61212;42.688;22.176;2022-10-16T13:56:25;11.95;;;5.18;;
69892;SDS011;61212;42.688;22.176;2022-10-16T13:59:05;8.25;;;5.63;;
69892;SDS011;61212;42.688;22.176;2022-10-16T14:01:39;12.77;;;5.22;;
69892;SDS011;61212;42.688;22.176;2022-10-16T14:04:07;9.15;;;4.97;;
69892;SDS011;61212;42.688;22.176;2022-10-16T14:06:33;7.63;;;4.80;;
69892;SDS011;61212;42.688;22.176;2022-10-16T14:11:27;11.85;;;6.03;;
69892;SDS011;61212;42.688;22.176;2022-10-16T14:13:53;14.30;;;6.00;;
69892;SDS011;61212;42.688;22.176;2022-10-16T14:16:21;10.15;;;5.45;;
69892;SDS011;61212;42.688;22.176;2022-10-16T14:19:03;11.77;;;5.78;;
69892;SDS011;61212;42.688;22.176;2022-10-16T14:21:32;14.23;;;5.75;;
69892;SDS011;61212;42.688;22.176;2022-10-16T14:23:59;12.45;;;5.78;;
69892;SDS011;61212;42.688;22.176;2022-10-16T14:26:40;12.32;;;6.32;;
69892;SDS011;61212;42.688;22.176;2022-10-16T14:29:11;19.75;;;9.55;;
69892;SDS011;61212;42.688;22.176;2022-10-16T14:31:38;19.17;;;9.80;;
69892;SDS011;61212;42.688;22.176;2022-10-16T14:34:22;20.85;;;8.48;;
69892;SDS011;61212;42.688;22.176;2022-10-16T14:39:19;22.23;;;11.13;;
69892;SDS011;61212;42.688;22.176;2022-10-16T14:41:46;28.98;;;13.50;;
69892;SDS011;61212;42.688;22.176;2022-10-16T14:44:13;11.52;;;6.32;;
69892;SDS011;61212;42.688;22.176;2022-10-16T14:46:39;16.27;;;8.30;;
69892;SDS011;61212;42.688;22.176;2022-10-16T14:51:36;22.05;;;10.90;;
69892;SDS011;61212;42.688;22.176;2022-10-16T14:54:02;30.45;;;15.10;;
69892;SDS011;61212;42.688;22.176;2022-10-16T15:00:06;20.98;;;10.23;;
69892;SDS011;61212;42.688;22.176;2022-10-16T15:02:35;10.90;;;6.60;;
69892;SDS011;61212;42.688;22.176;2022-10-16T15:05:07;11.77;;;6.78;;
69892;SDS011;61212;42.688;22.176;2022-10-16T15:07:36;20.70;;;12.65;;
69892;SDS011;61212;42.688;22.176;2022-10-16T15:10:02;18.60;;;9.05;;
69892;SDS011;61212;42.688;22.176;2022-10-16T15:12:28;17.63;;;8.10;;
69892;SDS011;61212;42.688;22.176;2022-10-16T15:14:54;23.83;;;10.82;;
69892;SDS011;61212;42.688;22.176;2022-10-16T15:17:20;15.52;;;8.00;;
69892;SDS011;61212;42.688;22.176;2022-10-16T15:19:46;20.63;;;11.18;;
69892;SDS011;61212;42.688;22.176;2022-10-16T15:22:12;34.15;;;15.10;;
69892;SDS011;61212;42.688;22.176;2022-10-16T15:24:39;29.98;;;17.40;;
69892;SDS011;61212;42.688;22.176;2022-10-16T15:27:05;30.52;;;14.65;;
69892;SDS011;61212;42.688;22.176;2022-10-16T15:29:31;18.63;;;9.48;;
69892;SDS011;61212;42.688;22.176;2022-10-16T15:31:57;12.90;;;6.65;;
69892;SDS011;61212;42.688;22.176;2022-10-16T15:34:23;13.65;;;8.32;;
69892;SDS011;61212;42.688;22.176;2022-10-16T15:36:49;25.88;;;13.00;;
69892;SDS011;61212;42.688;22.176;2022-10-16T15:39:16;42.97;;;21.63;;
69892;SDS011;61212;42.688;22.176;2022-10-16T15:41:43;42.22;;;22.73;;
69892;SDS011;61212;42.688;22.176;2022-10-16T15:44:09;38.28;;;21.35;;
69892;SDS011;61212;42.688;22.176;2022-10-16T15:46:35;34.28;;;19.45;;
69892;SDS011;61212;42.688;22.176;2022-10-16T15:49:02;55.97;;;24.73;;
69892;SDS011;61212;42.688;22.176;2022-10-16T15:51:28;49.20;;;26.13;;
69892;SDS011;61212;42.688;22.176;2022-10-16T15:53:57;42.65;;;20.20;;
69892;SDS011;61212;42.688;22.176;2022-10-16T15:56:24;29.98;;;16.40;;
69892;SDS011;61212;42.688;22.176;2022-10-16T15:58:51;20.27;;;12.52;;
69892;SDS011;61212;42.688;22.176;2022-10-16T16:01:18;19.65;;;11.52;;
69892;SDS011;61212;42.688;22.176;2022-10-16T16:03:44;21.25;;;11.00;;
69892;SDS011;61212;42.688;22.176;2022-10-16T16:06:12;30.45;;;12.57;;
69892;SDS011;61212;42.688;22.176;2022-10-16T16:08:38;25.65;;;14.15;;
69892;SDS011;61212;42.688;22.176;2022-10-16T16:11:11;36.08;;;21.20;;
69892;SDS011;61212;42.688;22.176;2022-10-16T16:13:38;28.60;;;16.80;;
69892;SDS011;61212;42.688;22.176;2022-10-16T16:16:09;30.25;;;16.13;;
69892;SDS011;61212;42.688;22.176;2022-10-16T16:18:35;25.40;;;15.13;;
69892;SDS011;61212;42.688;22.176;2022-10-16T16:21:01;24.23;;;15.85;;
69892;SDS011;61212;42.688;22.176;2022-10-16T16:23:28;37.38;;;23.15;;
69892;SDS011;61212;42.688;22.176;2022-10-16T16:26:07;47.90;;;26.42;;
69892;SDS011;61212;42.688;22.176;2022-10-16T16:28:35;47.85;;;24.67;;